createdAt,value
2022-08-07T00:00:51.509Z,13.00
2022-08-07T00:03:18.230Z,7.40
2022-08-07T00:05:45.449Z,7.90
2022-08-07T00:08:14.382Z,8.77
2022-08-07T00:10:48.342Z,7.97
2022-08-07T00:13:25.905Z,7.80
2022-08-07T00:15:54.772Z,7.90
2022-08-07T00:18:25.627Z,9.33
2022-08-07T00:21:01.854Z,7.80
2022-08-07T00:23:31.787Z,8.07
2022-08-07T00:26:12.923Z,9.27
2022-08-07T00:28:55.296Z,7.90
2022-08-07T00:31:22.440Z,8.40
2022-08-07T00:33:49.165Z,7.33
2022-08-07T00:36:17.008Z,8.43
2022-08-07T00:38:44.143Z,7.93
2022-08-07T00:41:14.714Z,8.40
2022-08-07T00:43:58.952Z,8.03
2022-08-07T00:46:29.006Z,7.67
2022-08-07T00:48:55.857Z,10.80
2022-08-07T00:51:22.585Z,8.07
2022-08-07T00:53:56.006Z,11.30
2022-08-07T00:56:23.347Z,8.30
2022-08-07T00:58:57.549Z,8.40
2022-08-07T01:01:24.737Z,8.67
2022-08-07T01:03:56.150Z,10.10
2022-08-07T01:06:29.067Z,9.17
2022-08-07T01:08:59.386Z,9.13
2022-08-07T01:12:09.099Z,7.93
2022-08-07T01:14:16.705Z,7.77
2022-08-07T01:16:46.981Z,8.53
2022-08-07T01:19:18.846Z,8.93
2022-08-07T01:21:53.399Z,8.37
2022-08-07T01:24:27.545Z,8.20
2022-08-07T01:26:58.968Z,8.10
2022-08-07T01:29:27.979Z,10.50
2022-08-07T01:31:59.283Z,9.27
2022-08-07T01:34:31.640Z,8.43
2022-08-07T01:37:02.123Z,10.60
2022-08-07T01:39:40.847Z,8.53
2022-08-07T01:42:37.676Z,8.43
2022-08-07T01:45:09.787Z,8.67
2022-08-07T01:48:19.745Z,8.67
2022-08-07T01:50:32.197Z,8.93
2022-08-07T01:53:01.956Z,7.87
2022-08-07T01:55:51.316Z,8.37
2022-08-07T01:58:29.586Z,8.17
2022-08-07T02:01:10.155Z,9.57
2022-08-07T02:04:09.888Z,9.40
2022-08-07T02:06:42.907Z,7.87
2022-08-07T02:09:43.630Z,10.67
2022-08-07T02:12:29.050Z,8.17
2022-08-07T02:15:06.968Z,7.77
2022-08-07T02:17:49.245Z,8.83
2022-08-07T02:20:23.257Z,7.90
2022-08-07T02:22:57.469Z,7.50
2022-08-07T02:26:11.345Z,8.83
2022-08-07T02:28:24.681Z,8.53
2022-08-07T02:30:56.373Z,11.07
2022-08-07T02:33:33.073Z,8.37
2022-08-07T02:36:29.029Z,8.47
2022-08-07T02:39:16.699Z,8.30
2022-08-07T02:41:54.606Z,9.00
2022-08-07T02:44:27.689Z,8.27
2022-08-07T02:47:05.187Z,8.80
2022-08-07T02:49:57.826Z,8.50
2022-08-07T02:52:34.681Z,8.40
2022-08-07T02:55:15.299Z,9.30
2022-08-07T02:57:58.966Z,8.53
2022-08-07T03:00:28.481Z,9.00
2022-08-07T03:02:59.013Z,10.17
2022-08-07T03:05:29.220Z,9.10
2022-08-07T03:08:09.384Z,9.23
2022-08-07T03:10:41.055Z,9.90
2022-08-07T03:13:19.192Z,10.70
2022-08-07T03:15:56.217Z,8.60
2022-08-07T03:18:34.679Z,8.47
2022-08-07T03:21:08.580Z,9.83
2022-08-07T03:24:18.132Z,7.77
2022-08-07T03:26:32.105Z,10.17
2022-08-07T03:29:02.681Z,9.47
2022-08-07T03:31:43.318Z,9.80
2022-08-07T03:34:18.637Z,8.67
2022-08-07T03:36:53.258Z,10.07
2022-08-07T03:39:58.852Z,9.53
2022-08-07T03:42:11.967Z,8.43
2022-08-07T03:44:40.360Z,9.93
2022-08-07T03:47:13.329Z,13.37
2022-08-07T03:49:47.982Z,9.70
2022-08-07T03:52:39.131Z,10.77
2022-08-07T03:55:09.567Z,10.27
2022-08-07T03:58:08.877Z,10.53
2022-08-07T04:00:36.544Z,10.67
2022-08-07T04:03:05.555Z,9.93
2022-08-07T04:05:40.647Z,9.70
2022-08-07T04:08:16.200Z,9.47
2022-08-07T04:10:54.354Z,9.00
2022-08-07T04:14:33.243Z,9.13
2022-08-07T04:16:31.240Z,10.60
2022-08-07T04:19:04.142Z,9.47
2022-08-07T04:21:48.066Z,9.93
2022-08-07T04:24:34.013Z,9.53
2022-08-07T04:27:04.805Z,10.47
2022-08-07T04:29:48.986Z,9.97
2022-08-07T04:32:33.924Z,9.53
2022-08-07T04:35:06.373Z,9.67
2022-08-07T04:37:52.834Z,9.57
2022-08-07T04:40:29.838Z,13.37
2022-08-07T04:43:01.247Z,10.37
2022-08-07T04:45:57.639Z,10.73
2022-08-07T04:48:37.205Z,12.40
2022-08-07T04:51:09.334Z,13.80
2022-08-07T04:54:06.017Z,10.43
2022-08-07T04:58:09.706Z,10.27
2022-08-07T05:00:10.907Z,10.67
2022-08-07T05:02:55.246Z,10.80
2022-08-07T05:05:53.292Z,11.23
2022-08-07T05:09:00.814Z,11.40
2022-08-07T05:11:58.822Z,12.13
2022-08-07T05:14:54.054Z,11.27
2022-08-07T05:17:52.869Z,9.87
2022-08-07T05:20:24.942Z,10.23
2022-08-07T05:22:59.574Z,11.63
2022-08-07T05:26:10.395Z,10.47
2022-08-07T05:28:22.805Z,10.83
2022-08-07T05:30:54.291Z,12.87
2022-08-07T05:33:23.329Z,10.87
2022-08-07T05:35:51.725Z,10.60
2022-08-07T05:38:58.078Z,10.80
2022-08-07T05:41:14.278Z,10.53
2022-08-07T05:44:01.490Z,10.60
2022-08-07T05:46:37.536Z,10.33
2022-08-07T05:49:12.369Z,11.63
2022-08-07T05:51:46.343Z,10.93
2022-08-07T05:54:31.096Z,10.63
2022-08-07T05:57:06.626Z,12.30
2022-08-07T05:59:38.789Z,10.43
2022-08-07T06:02:28.463Z,10.13
2022-08-07T06:05:03.377Z,9.60
2022-08-07T06:08:13.017Z,10.70
2022-08-07T06:10:19.063Z,10.57
2022-08-07T06:12:47.860Z,9.67
2022-08-07T06:15:16.320Z,10.27
2022-08-07T06:17:53.773Z,9.87
2022-08-07T06:20:31.789Z,10.23
2022-08-07T06:23:46.003Z,10.77
2022-08-07T06:25:59.805Z,10.20
2022-08-07T06:28:28.481Z,8.80
2022-08-07T06:30:58.233Z,9.40
2022-08-07T06:33:26.663Z,9.97
2022-08-07T06:36:06.667Z,8.93
2022-08-07T06:38:59.415Z,9.13
2022-08-07T06:42:07.286Z,8.27
2022-08-07T06:44:57.361Z,7.73
2022-08-07T06:47:27.129Z,8.30
2022-08-07T06:49:58.108Z,8.97
2022-08-07T06:52:35.997Z,7.57
2022-08-07T06:55:32.081Z,5.87
2022-08-07T06:58:01.242Z,5.73
2022-08-07T07:00:38.263Z,5.73
2022-08-07T07:03:08.514Z,9.03
2022-08-07T07:06:03.765Z,9.13
2022-08-07T07:08:27.566Z,7.57
2022-08-07T07:10:57.384Z,6.23
2022-08-07T07:13:55.348Z,9.53
2022-08-07T07:16:27.299Z,10.47
2022-08-07T07:19:11.196Z,8.53
2022-08-07T07:22:11.976Z,5.83
2022-08-07T07:24:43.020Z,6.87
2022-08-07T07:27:13.475Z,8.10
2022-08-07T07:30:07.604Z,6.73
2022-08-07T07:32:38.817Z,5.57
2022-08-07T07:35:06.794Z,5.83
2022-08-07T07:37:45.087Z,7.07
2022-08-07T07:40:20.076Z,5.93
2022-08-07T07:42:51.285Z,5.17
2022-08-07T07:46:37.965Z,7.00
2022-08-07T07:48:35.286Z,6.57
2022-08-07T07:51:03.261Z,5.67
2022-08-07T07:53:52.121Z,5.70
2022-08-07T07:56:29.716Z,7.43
2022-08-07T07:58:59.938Z,7.10
2022-08-07T08:02:02.171Z,6.37
2022-08-07T08:04:18.405Z,5.57
2022-08-07T08:06:52.367Z,5.37
2022-08-07T08:09:29.519Z,7.17
2022-08-07T08:12:01.633Z,10.03
2022-08-07T08:14:31.969Z,5.00
2022-08-07T08:17:32.461Z,6.13
2022-08-07T08:20:17.117Z,5.70
2022-08-07T08:23:01.379Z,6.70
2022-08-07T08:25:50.527Z,5.20
2022-08-07T08:28:37.346Z,4.80
2022-08-07T08:31:08.447Z,5.77
2022-08-07T08:33:49.498Z,4.90
2022-08-07T08:36:25.715Z,5.67
2022-08-07T08:38:59.949Z,5.13
2022-08-07T08:41:59.001Z,5.03
2022-08-07T08:44:48.519Z,4.37
2022-08-07T08:47:27.484Z,4.93
2022-08-07T08:50:08.688Z,4.20
2022-08-07T08:52:54.292Z,4.80
2022-08-07T08:55:54.394Z,4.80
2022-08-07T08:58:36.822Z,4.37
2022-08-07T09:01:16.138Z,4.00
2022-08-07T09:03:55.177Z,3.80
2022-08-07T09:06:29.342Z,6.27
2022-08-07T09:09:09.694Z,4.67
2022-08-07T09:12:02.848Z,7.90
2022-08-07T09:16:20.082Z,4.30
2022-08-07T09:18:07.214Z,5.30
2022-08-07T09:21:03.317Z,4.00
2022-08-07T09:24:33.255Z,4.17
2022-08-07T09:26:57.466Z,4.23
2022-08-07T09:30:05.297Z,4.70
2022-08-07T09:32:49.819Z,5.40
2022-08-07T09:36:00.836Z,4.57
2022-08-07T09:38:29.914Z,4.50
2022-08-07T09:41:36.147Z,4.83
2022-08-07T09:44:19.214Z,6.87
2022-08-07T09:47:50.719Z,5.40
2022-08-07T09:50:19.111Z,6.07
2022-08-07T09:52:56.156Z,5.53
2022-08-07T09:56:03.534Z,5.50
2022-08-07T09:58:48.550Z,5.50
2022-08-07T10:01:51.881Z,7.07
2022-08-07T10:04:53.351Z,5.23
2022-08-07T10:07:58.561Z,6.37
2022-08-07T10:11:59.405Z,5.47
2022-08-07T10:14:02.689Z,5.77
2022-08-07T10:16:55.998Z,7.57
2022-08-07T10:20:00.310Z,7.17
2022-08-07T10:23:00.281Z,5.97
2022-08-07T10:25:43.546Z,5.90
2022-08-07T10:28:23.509Z,5.83
2022-08-07T10:31:15.507Z,5.77
2022-08-07T10:34:14.493Z,5.03
2022-08-07T10:36:51.664Z,4.93
2022-08-07T10:40:03.441Z,5.27
2022-08-07T10:42:46.698Z,6.57
2022-08-07T10:45:44.377Z,6.43
2022-08-07T10:48:44.283Z,6.23
2022-08-07T10:51:57.480Z,4.80
2022-08-07T10:54:21.721Z,7.63
2022-08-07T10:57:09.652Z,4.93
2022-08-07T11:00:06.279Z,5.13
2022-08-07T11:02:49.344Z,5.30
2022-08-07T11:05:48.906Z,4.73
2022-08-07T11:08:32.114Z,4.13
2022-08-07T11:11:07.738Z,4.30
2022-08-07T11:14:44.638Z,4.13
2022-08-07T11:16:36.769Z,5.70
2022-08-07T11:19:21.522Z,5.10
2022-08-07T11:22:26.277Z,4.67
2022-08-07T11:25:36.134Z,4.23
2022-08-07T11:28:16.619Z,4.30
2022-08-07T11:31:21.910Z,3.87
2022-08-07T11:34:00.418Z,4.00
2022-08-07T11:36:43.638Z,4.30
2022-08-07T11:39:23.919Z,4.70
2022-08-07T11:42:16.887Z,4.77
2022-08-07T11:45:15.645Z,3.80
2022-08-07T11:47:59.534Z,4.80
2022-08-07T11:50:44.581Z,4.73
2022-08-07T11:54:02.655Z,4.67
2022-08-07T11:56:56.375Z,3.73
2022-08-07T12:00:12.652Z,4.03
2022-08-07T12:03:41.588Z,4.60
2022-08-07T12:06:37.511Z,4.40
2022-08-07T12:09:46.139Z,4.83
2022-08-07T12:12:25.632Z,4.50
2022-08-07T12:15:01.970Z,3.50
2022-08-07T12:18:07.964Z,6.17
2022-08-07T12:20:56.725Z,4.13
2022-08-07T12:24:04.964Z,3.93
2022-08-07T12:26:46.777Z,5.40
2022-08-07T12:29:41.256Z,4.67
2022-08-07T12:32:38.680Z,4.27
2022-08-07T12:35:10.031Z,4.00
2022-08-07T12:38:10.732Z,4.63
2022-08-07T12:40:50.871Z,3.60
2022-08-07T12:44:04.317Z,4.83
2022-08-07T12:46:26.265Z,4.27
2022-08-07T12:49:48.666Z,3.47
2022-08-07T12:52:17.931Z,3.50
2022-08-07T12:54:54.914Z,3.33
2022-08-07T12:57:39.314Z,3.53
2022-08-07T13:00:30.982Z,14.37
2022-08-07T13:03:59.364Z,4.23
2022-08-07T13:07:02.850Z,5.13
2022-08-07T13:10:37.339Z,8.07
2022-08-07T13:12:54.084Z,4.50
2022-08-07T13:15:46.023Z,6.40
2022-08-07T13:18:30.091Z,3.93
2022-08-07T13:21:04.958Z,4.43
2022-08-07T13:24:03.842Z,4.90
2022-08-07T13:26:57.423Z,4.73
2022-08-07T13:29:34.610Z,5.03
2022-08-07T13:32:23.696Z,4.17
2022-08-07T13:35:00.328Z,5.87
2022-08-07T13:37:59.055Z,4.50
2022-08-07T13:40:46.884Z,5.53
2022-08-07T13:43:17.466Z,4.90
2022-08-07T13:46:12.000Z,5.27
2022-08-07T13:48:51.884Z,3.10
2022-08-07T13:51:27.944Z,3.83
2022-08-07T13:54:22.470Z,5.10
2022-08-07T13:56:59.590Z,5.20
2022-08-07T13:59:32.907Z,4.57
2022-08-07T14:02:29.670Z,3.90
2022-08-07T14:05:14.768Z,4.00
2022-08-07T14:08:00.946Z,3.23
2022-08-07T14:10:42.107Z,4.13
2022-08-07T14:13:18.005Z,3.93
2022-08-07T14:15:54.192Z,5.00
2022-08-07T14:18:38.634Z,4.03
2022-08-07T14:22:02.969Z,4.60
2022-08-07T14:24:28.010Z,4.50
2022-08-07T14:27:00.891Z,4.77
2022-08-07T14:30:06.613Z,5.83
2022-08-07T14:32:50.488Z,5.87
2022-08-07T14:38:26.369Z,10.37
2022-08-07T14:41:03.932Z,4.80
2022-08-07T14:43:58.940Z,3.80
2022-08-07T14:46:38.001Z,4.60
2022-08-07T14:49:57.168Z,4.77
2022-08-07T14:52:11.464Z,6.10
2022-08-07T14:54:43.112Z,8.07
2022-08-07T14:57:19.690Z,4.27
2022-08-07T15:05:26.696Z,4.73
2022-08-07T15:07:55.479Z,4.27
2022-08-07T15:10:26.939Z,3.00
2022-08-07T15:13:05.980Z,3.80
2022-08-07T15:15:40.610Z,4.67
2022-08-07T15:21:58.686Z,5.07
2022-08-07T15:26:57.098Z,5.73
2022-08-07T15:30:06.772Z,4.73
2022-08-07T15:32:39.555Z,4.90
2022-08-07T15:35:12.247Z,4.73
2022-08-07T15:38:04.297Z,4.33
2022-08-07T15:43:53.572Z,4.93
2022-08-07T15:46:39.197Z,4.77
2022-08-07T15:49:15.088Z,3.93
2022-08-07T15:54:27.216Z,4.10
2022-08-07T15:56:59.075Z,9.17
2022-08-07T15:59:39.247Z,3.40
2022-08-07T16:02:22.134Z,4.20
2022-08-07T16:05:00.309Z,4.30
2022-08-07T16:08:28.554Z,3.87
2022-08-07T16:10:21.869Z,4.10
2022-08-07T16:13:04.569Z,4.93
2022-08-07T16:15:57.208Z,4.20
2022-08-07T16:18:49.314Z,3.67
2022-08-07T16:21:44.156Z,4.60
2022-08-07T16:24:40.672Z,4.77
2022-08-07T16:27:39.768Z,4.97
2022-08-07T16:30:31.824Z,3.80
2022-08-07T16:34:02.894Z,5.07
2022-08-07T16:36:20.319Z,4.03
2022-08-07T16:39:06.068Z,4.60
2022-08-07T16:42:08.696Z,4.80
2022-08-07T16:45:24.600Z,4.20
2022-08-07T16:48:30.051Z,3.43
2022-08-07T16:51:21.666Z,4.33
2022-08-07T16:54:18.095Z,3.60
2022-08-07T16:57:00.618Z,3.10
2022-08-07T16:59:51.168Z,3.17
2022-08-07T17:02:51.809Z,4.77
2022-08-07T17:06:02.042Z,4.13
2022-08-07T17:09:09.378Z,4.30
2022-08-07T17:12:04.843Z,3.90
2022-08-07T17:14:51.909Z,3.73
2022-08-07T17:17:52.461Z,7.13
2022-08-07T17:20:37.544Z,2.80
2022-08-07T17:23:22.852Z,2.77
2022-08-07T17:26:23.981Z,2.87
2022-08-07T17:29:09.585Z,3.13
2022-08-07T17:32:52.857Z,3.13
2022-08-07T17:35:50.809Z,4.17
2022-08-07T17:38:33.178Z,2.80
2022-08-07T17:42:04.038Z,3.70
2022-08-07T17:44:34.025Z,2.87
2022-08-07T17:47:16.819Z,4.20
2022-08-07T17:50:01.103Z,5.97
2022-08-07T17:52:43.122Z,3.47
2022-08-07T17:56:00.877Z,3.90
2022-08-07T17:58:36.885Z,7.20
2022-08-07T18:01:20.572Z,3.80
2022-08-07T18:04:16.421Z,3.43
2022-08-07T18:07:22.491Z,3.13
2022-08-07T18:10:05.985Z,5.27
2022-08-07T18:12:59.381Z,3.30
2022-08-07T18:15:33.123Z,3.77
2022-08-07T18:18:36.503Z,4.00
2022-08-07T18:21:28.728Z,3.53
2022-08-07T18:24:33.190Z,4.83
2022-08-07T18:27:22.881Z,3.93
2022-08-07T18:30:07.715Z,3.70
2022-08-07T18:33:31.888Z,2.93
2022-08-07T18:36:33.856Z,3.93
2022-08-07T18:40:07.888Z,4.77
2022-08-07T18:42:37.502Z,5.97
2022-08-07T18:45:44.123Z,4.40
2022-08-07T18:50:06.830Z,3.77
2022-08-07T18:51:09.953Z,4.63
2022-08-07T18:54:30.624Z,4.70
2022-08-07T18:57:40.306Z,5.10
2022-08-07T19:00:32.924Z,3.90
2022-08-07T19:03:12.297Z,4.33
2022-08-07T19:06:03.574Z,3.10
2022-08-07T19:08:49.411Z,4.53
2022-08-07T19:11:36.456Z,4.83
2022-08-07T19:14:17.378Z,3.70
2022-08-07T19:17:05.783Z,4.10
2022-08-07T19:19:53.235Z,3.27
2022-08-07T19:22:40.324Z,3.70
2022-08-07T19:26:23.078Z,5.17
2022-08-07T19:28:30.536Z,5.60
2022-08-07T19:31:40.603Z,6.00
2022-08-07T19:34:02.494Z,4.90
2022-08-07T19:36:34.044Z,4.37
2022-08-07T19:39:09.117Z,4.57
2022-08-07T19:42:05.906Z,4.77
2022-08-07T19:44:38.444Z,5.80
2022-08-07T19:47:11.470Z,4.70
2022-08-07T19:49:56.497Z,4.77
2022-08-07T19:52:27.992Z,4.37
2022-08-07T19:54:57.269Z,4.20
2022-08-07T19:58:00.721Z,8.37
2022-08-07T20:00:29.106Z,5.17
2022-08-07T20:03:34.924Z,6.93
2022-08-07T20:06:04.844Z,7.53
2022-08-07T20:08:38.627Z,4.50
2022-08-07T20:11:10.853Z,4.37
2022-08-07T20:13:53.408Z,6.57
2022-08-07T20:16:34.883Z,5.50
2022-08-07T20:19:10.225Z,6.17
2022-08-07T20:21:47.312Z,4.87
2022-08-07T20:24:35.745Z,5.20
2022-08-07T20:27:07.623Z,5.60
2022-08-07T20:29:56.781Z,4.53
2022-08-07T20:32:39.819Z,5.80
2022-08-07T20:35:23.269Z,8.10
2022-08-07T20:37:57.724Z,8.50
2022-08-07T20:40:32.165Z,6.20
2022-08-07T20:43:02.184Z,9.60
2022-08-07T20:46:28.565Z,5.97
2022-08-07T20:48:28.869Z,6.40
2022-08-07T20:50:59.927Z,7.37
2022-08-07T20:54:02.317Z,8.27
2022-08-07T20:56:16.500Z,5.87
2022-08-07T20:58:50.255Z,8.83
2022-08-07T21:01:21.435Z,5.90
2022-08-07T21:04:18.809Z,6.43
2022-08-07T21:06:46.691Z,6.97
2022-08-07T21:09:24.412Z,6.13
2022-08-07T21:11:58.134Z,6.70
2022-08-07T21:14:33.271Z,6.37
2022-08-07T21:18:02.877Z,7.33
2022-08-07T21:20:04.630Z,9.90
2022-08-07T21:22:39.035Z,6.30
2022-08-07T21:25:22.527Z,6.80
2022-08-07T21:28:13.461Z,7.30
2022-08-07T21:31:12.517Z,5.73
2022-08-07T21:33:54.773Z,9.30
2022-08-07T21:36:38.512Z,6.30
2022-08-07T21:39:47.203Z,5.90
2022-08-07T21:42:46.737Z,7.13
2022-08-07T21:46:10.384Z,11.37
2022-08-07T21:48:32.494Z,4.97
2022-08-07T21:51:19.758Z,5.97
2022-08-07T21:53:54.140Z,6.50
2022-08-07T21:57:06.336Z,6.57
2022-08-07T22:00:05.418Z,5.00
2022-08-07T22:02:59.098Z,6.67
2022-08-07T22:05:45.409Z,7.53
2022-08-07T22:08:18.405Z,5.37
2022-08-07T22:10:49.626Z,8.37
2022-08-07T22:13:24.466Z,7.37
2022-08-07T22:16:43.410Z,9.00
2022-08-07T22:19:18.153Z,5.87
2022-08-07T22:22:17.958Z,5.60
2022-08-07T22:24:56.752Z,6.83
2022-08-07T22:28:07.831Z,7.43
2022-08-07T22:30:26.561Z,5.20
2022-08-07T22:33:06.913Z,5.70
2022-08-07T22:35:43.699Z,6.33
2022-08-07T22:38:25.565Z,6.60
2022-08-07T22:41:08.078Z,6.13
2022-08-07T22:43:43.591Z,5.47
2022-08-07T22:47:03.025Z,5.70
2022-08-07T22:49:37.899Z,5.83
2022-08-07T22:52:57.400Z,5.57
2022-08-07T22:55:51.546Z,5.67
2022-08-07T22:58:28.018Z,7.67
2022-08-07T23:01:41.838Z,6.90
2022-08-07T23:04:56.863Z,5.67
2022-08-07T23:07:42.000Z,5.67
2022-08-07T23:10:37.482Z,6.37
2022-08-07T23:13:29.591Z,6.57
2022-08-07T23:16:48.420Z,5.50
2022-08-07T23:20:18.404Z,6.53
2022-08-07T23:24:06.625Z,7.23
2022-08-07T23:26:25.063Z,6.20
2022-08-07T23:29:42.700Z,6.10
2022-08-07T23:34:20.846Z,6.00
2022-08-07T23:35:25.785Z,5.30
2022-08-07T23:38:11.667Z,6.30
2022-08-07T23:41:13.883Z,5.70
2022-08-07T23:44:29.819Z,7.53
2022-08-07T23:47:11.618Z,9.27
2022-08-07T23:50:03.949Z,9.73
2022-08-07T23:52:59.710Z,6.43
2022-08-07T23:55:55.972Z,10.63
2022-08-07T23:58:32.434Z,6.27
